Terminal Aerodrome Forecast
Issued by NWS

Home | Current Version | Previous Version | Text Only | Print | Product List | Glossary On
Versions: 1 2 3 4 5 6 7 8 9 10 11 12
000
FTUS44 KTSA 140500
TAFMLC
TAF
KMLC 140520Z 1406/1506 17005KT P6SM SCT110
     FM141200 20006KT P6SM SCT100
     FM141800 26008KT P6SM SCT100
     FM150000 03005KT P6SM SCT250=

USA.gov is the U.S. government's official web portal to all federal, state and local government web resources and services.